Time;durP1;ratioP1;P1;durP2;ratioP2;P2;SDS_P1;SDS_P2;PMS_P1;PMS_P2;Temp;Humidity;BMP_temperature;BMP_pressure;BME280_temperature;BME280_humidity;BME280_pressure;Samples;Min_cycle;Max_cycle;Signal;HPM_P1;HPM_P2
2020/12/05 00:00:37;;;;;;;;;;;;;;;;;;2097970;28;43142;-65
2020/12/05 00:01:38;;;;;;;;;;;;;;;;;;2106462;28;43157;-64
2020/12/05 00:02:39;;;;;;;;;;;;;;;;;;2105525;28;43849;-63
2020/12/05 00:03:40;;;;;;;;;;;;;;;;;;2114400;28;41821;-64
2020/12/05 00:04:41;;;;;;;;;;;;;;;;;;2113864;28;44275;-64
2020/12/05 00:05:43;;;;;;;;;;;;;;;;;;2106115;28;44340;-63
2020/12/05 00:06:44;;;;;;;;;;;;;;;;;;2106119;28;44006;-63
2020/12/05 00:07:45;;;;;;;;;;;;;;;;;;2113931;28;45339;-63
2020/12/05 00:08:46;;;;;;;;;;;;;;;;;;2105303;28;46606;-63
2020/12/05 00:09:47;;;;;;;;;;;;;;;;;;2097246;28;44969;-63
2020/12/05 00:10:48;;;;;;;;;;;;;;;;;;2105503;28;45276;-63
2020/12/05 00:11:49;;;;;;;;;;;;;;;;;;2097215;28;44259;-63
2020/12/05 00:12:50;;;;;;;;;;;;;;;;;;2096805;28;45359;-63
2020/12/05 00:13:51;;;;;;;;;;;;;;;;;;2105663;28;43473;-63
2020/12/05 00:14:52;;;;;;;;;;;;;;;;;;2106162;28;44089;-63
2020/12/05 00:15:53;;;;;;;;;;;;;;;;;;2106285;28;44721;-63
2020/12/05 00:16:54;;;;;;;;;;;;;;;;;;2106229;28;45575;-63
2020/12/05 00:17:55;;;;;;;;;;;;;;;;;;2105105;28;43534;-63
2020/12/05 00:18:56;;;;;;;;;;;;;;;;;;2105427;28;45405;-63
2020/12/05 00:19:58;;;;;;;;;;;;;;;;;;2096872;28;45594;-63
2020/12/05 00:20:59;;;;;;;;;;;;;;;;;;2097084;28;44291;-63
2020/12/05 00:22:00;;;;;;;;;;;;;;;;;;2106114;28;45615;-63
2020/12/05 00:23:01;;;;;;;;;;;;;;;;;;2105902;28;44788;-63
2020/12/05 00:24:02;;;;;;;;;;;;;;;;;;2106172;28;46596;-63
2020/12/05 00:25:04;;;;;;;;;;;;;;;;;;2105583;28;44366;-63
2020/12/05 00:26:05;;;;;;;;;;;;;;;;;;2105322;28;44877;-64
2020/12/05 00:27:06;;;;;;;;;;;;;;;;;;2105756;28;44727;-63
2020/12/05 00:28:07;;;;;;;;;;;;;;;;;;2105586;28;44776;-65
2020/12/05 00:29:08;;;;;;;;;;;;;;;;;;2105214;28;44875;-64
2020/12/05 00:30:09;;;;;;;;;;;;;;;;;;2105860;28;44759;-64
2020/12/05 00:31:13;;;;;;;;;;;;;;;;;;2106123;28;42850;-64
2020/12/05 00:32:14;;;;;;;;;;;;;;;;;;2106035;28;43398;-64
2020/12/05 00:33:15;;;;;;;;;;;;;;;;;;2105946;28;46243;-64
2020/12/05 00:34:17;;;;;;;;;;;;;;;;;;2113945;28;44859;-64
2020/12/05 00:35:18;;;;;;;;;;;;;;;;;;2113779;28;45265;-65
2020/12/05 00:36:19;;;;;;;;;;;;;;;;;;2105929;28;45341;-64
2020/12/05 00:37:21;;;;;;;;;;;;;;;;;;2105492;28;47374;-64
2020/12/05 00:38:24;;;;;;;;;;;;;;;;;;2105548;28;44243;-63
2020/12/05 00:39:25;;;;;;;;;;;;;;;;;;2106081;28;47050;-62
2020/12/05 00:40:26;;;;;;;;;;;;;;;;;;2105485;28;46040;-63
2020/12/05 00:41:27;;;;;;;;;;;;;;;;;;2106038;28;47143;-63
2020/12/05 00:42:28;;;;;;;;;;;;;;;;;;2106055;28;43191;-64
2020/12/05 00:43:33;;;;;;;;;;;;;;;;;;2105987;28;44109;-63
2020/12/05 00:44:34;;;;;;;;;;;;;;;;;;2106101;28;45929;-63
2020/12/05 00:45:35;;;;;;;;;;;;;;;;;;2106088;28;45441;-63
2020/12/05 00:46:39;;;;;;;;;;;;;;;;;;2105852;28;42903;-63
2020/12/05 00:47:40;;;;;;;;;;;;;;;;;;2113653;28;44885;-63
2020/12/05 00:48:44;;;;;;;;;;;;;;;;;;2113365;28;43210;-64
2020/12/05 00:49:45;;;;;;;;;;;;;;;;;;2113785;28;43001;-64
2020/12/05 00:50:46;;;;;;;;;;;;;;;;;;2113373;28;44480;-63
2020/12/05 00:51:47;;;;;;;;;;;;;;;;;;2106042;28;43277;-63
2020/12/05 00:52:48;;;;;;;;;;;;;;;;;;2105868;28;43316;-63
2020/12/05 00:53:49;;;;;;;;;;;;;;;;;;2105971;28;44124;-63
2020/12/05 00:54:50;;;;;;;;;;;;;;;;;;2105776;28;43306;-64
2020/12/05 00:55:51;;;;;;;;;;;;;;;;;;2106029;28;44471;-65
2020/12/05 00:56:52;;;;;;;;;;;;;;;;;;2113673;28;44574;-65
2020/12/05 00:57:53;;;;;;;;;;;;;;;;;;2113654;28;44583;-65
2020/12/05 00:58:54;;;;;;;;;;;;;;;;;;2105171;28;44194;-65
2020/12/05 00:59:55;;;;;;;;;;;;;;;;;;2105107;28;44460;-66
2020/12/05 01:00:56;;;;;;;;;;;;;;;;;;2105806;28;43293;-65
2020/12/05 01:01:57;;;;;;;;;;;;;;;;;;2105842;28;43272;-64
2020/12/05 01:03:02;;;;;;;;;;;;;;;;;;2105910;28;42978;-63
2020/12/05 01:04:03;;;;;;;;;;;;;;;;;;2105959;28;46339;-63
2020/12/05 01:05:04;;;;;;;;;;;;;;;;;;2106511;28;42108;-63
2020/12/05 01:06:09;;;;;;;;;;;;;;;;;;2110735;28;43173;-63
2020/12/05 01:07:10;;;;;;;;;;;;;;;;;;2114628;27;43327;-63
2020/12/05 01:08:11;;;;;;;;;;;;;;;;;;2115266;28;43298;-63
2020/12/05 01:09:12;;;;;;;;;;;;;;;;;;2107481;28;44149;-63
2020/12/05 01:10:14;;;;;;;;;;;;;;;;;;2107207;28;42855;-63
2020/12/05 01:11:18;;;;;;;;;;;;;;;;;;2107255;28;44386;-63
2020/12/05 01:12:19;;;;;;;;;;;;;;;;;;2107483;28;44295;-62
2020/12/05 01:13:20;;;;;;;;;;;;;;;;;;2107262;28;44262;-63
2020/12/05 01:14:21;;;;;;;;;;;;;;;;;;2107248;28;44271;-63
2020/12/05 01:15:22;;;;;;;;;;;;;;;;;;2107091;28;44295;-63
2020/12/05 01:16:24;;;;;;;;;;;;;;;;;;2107581;28;43959;-64
2020/12/05 01:17:25;;;;;;;;;;;;;;;;;;2114656;28;43926;-63
2020/12/05 01:18:26;;;;;;;;;;;;;;;;;;2115267;28;42764;-64
2020/12/05 01:19:27;;;;;;;;;;;;;;;;;;2106957;28;45038;-64
2020/12/05 01:20:28;;;;;;;;;;;;;;;;;;2107292;28;42988;-65
2020/12/05 01:21:30;;;;;;;;;;;;;;;;;;2114733;28;43395;-64
2020/12/05 01:22:31;;;;;;;;;;;;;;;;;;2115142;28;42450;-64
2020/12/05 01:23:32;;;;;;;;;;;;;;;;;;2107022;28;43117;-64
2020/12/05 01:24:33;;;;;;;;;;;;;;;;;;2114913;28;44566;-64
2020/12/05 01:25:34;;;;;;;;;;;;;;;;;;2114875;28;45491;-64
2020/12/05 01:26:35;;;;;;;;;;;;;;;;;;2106665;28;45416;-64
2020/12/05 01:27:36;;;;;;;;;;;;;;;;;;2106350;28;42777;-64
2020/12/05 01:28:37;;;;;;;;;;;;;;;;;;2107446;28;45710;-64
2020/12/05 01:29:38;;;;;;;;;;;;;;;;;;2107027;28;44659;-64
2020/12/05 01:30:39;;;;;;;;;;;;;;;;;;2107420;28;44274;-64
2020/12/05 01:31:40;;;;;;;;;;;;;;;;;;2114649;28;44614;-64
2020/12/05 01:32:41;;;;;;;;;;;;;;;;;;2106595;28;46083;-64
2020/12/05 01:33:42;;;;;;;;;;;;;;;;;;2098210;28;46052;-64
2020/12/05 01:34:43;;;;;;;;;;;;;;;;;;2107113;28;46164;-64
2020/12/05 01:35:44;;;;;;;;;;;;;;;;;;2107006;28;44840;-64
2020/12/05 01:36:45;;;;;;;;;;;;;;;;;;2107258;28;43418;-64
2020/12/05 01:37:46;;;;;;;;;;;;;;;;;;2107055;28;44553;-64
2020/12/05 01:38:47;;;;;;;;;;;;;;;;;;2107022;28;46453;-64
2020/12/05 01:39:48;;;;;;;;;;;;;;;;;;2115120;28;43689;-64
2020/12/05 01:40:50;;;;;;;;;;;;;;;;;;2114689;28;46224;-64
2020/12/05 01:41:51;;;;;;;;;;;;;;;;;;2107314;28;45878;-64
2020/12/05 01:42:52;;;;;;;;;;;;;;;;;;2106987;28;45489;-64
2020/12/05 01:43:53;;;;;;;;;;;;;;;;;;2107366;28;43941;-64
2020/12/05 01:44:54;;;;;;;;;;;;;;;;;;2106825;28;45872;-64
2020/12/05 01:45:57;;;;;;;;;;;;;;;;;;2107081;28;46102;-64
2020/12/05 01:46:59;;;;;;;;;;;;;;;;;;2106649;28;45115;-64
2020/12/05 01:47:59;;;;;;;;;;;;;;;;;;2107123;28;44586;-64
2020/12/05 01:49:01;;;;;;;;;;;;;;;;;;2114734;28;44743;-64
2020/12/05 01:50:02;;;;;;;;;;;;;;;;;;2114638;28;46058;-64
2020/12/05 01:51:03;;;;;;;;;;;;;;;;;;2107041;28;47026;-64
2020/12/05 01:52:04;;;;;;;;;;;;;;;;;;2115049;28;46049;-66
2020/12/05 01:53:05;;;;;;;;;;;;;;;;;;2114912;28;44914;-64
2020/12/05 01:54:07;;;;;;;;;;;;;;;;;;2107119;28;45870;-64
2020/12/05 01:55:08;;;;;;;;;;;;;;;;;;2106686;28;43533;-64
2020/12/05 01:56:09;;;;;;;;;;;;;;;;;;2107278;28;43193;-64
2020/12/05 01:57:10;;;;;;;;;;;;;;;;;;2106767;28;44586;-64
2020/12/05 01:58:12;;;;;;;;;;;;;;;;;;2107354;28;44571;-64
2020/12/05 01:59:13;;;;;;;;;;;;;;;;;;2106295;28;44590;-64
2020/12/05 02:00:14;;;;;;;;;;;;;;;;;;2106309;28;42874;-64
2020/12/05 02:01:19;;;;;;;;;;;;;;;;;;2106679;28;44476;-64
2020/12/05 02:02:20;;;;;;;;;;;;;;;;;;2106938;28;43071;-63
2020/12/05 02:03:21;;;;;;;;;;;;;;;;;;2106556;28;43316;-62
2020/12/05 02:04:22;;;;;;;;;;;;;;;;;;2107141;28;42982;-62
2020/12/05 02:05:48;;;;;;;;;;;;;;;;;;2106809;28;43943;-62
2020/12/05 02:07:12;;;;;;;;;;;;;;;;;;2098707;28;44299;-63
2020/12/05 02:08:14;;;;;;;;;;;;;;;;;;2080720;28;45387;-62
2020/12/05 02:09:21;;;;;;;;;;;;;;;;;;2087891;28;43037;-62
2020/12/05 02:10:27;;;;;;;;;;;;;;;;;;2098760;28;43145;-62
2020/12/05 02:11:30;;;;;;;;;;;;;;;;;;2105372;28;43312;-62
2020/12/05 02:12:37;;;;;;;;;;;;;;;;;;2099013;28;42995;-63
2020/12/05 02:13:40;;;;;;;;;;;;;;;;;;2099128;28;43099;-64
2020/12/05 02:14:41;;;;;;;;;;;;;;;;;;2099564;28;41716;-64
2020/12/05 02:15:44;;;;;;;;;;;;;;;;;;2099110;28;42877;-64
2020/12/05 02:16:46;;;;;;;;;;;;;;;;;;2099012;28;42669;-64
2020/12/05 02:17:51;;;;;;;;;;;;;;;;;;2098479;28;43990;-64
2020/12/05 02:18:53;;;;;;;;;;;;;;;;;;2090393;28;45378;-64
2020/12/05 02:19:55;;;;;;;;;;;;;;;;;;2091132;28;44359;-64
2020/12/05 02:20:58;;;;;;;;;;;;;;;;;;2101906;28;45404;-64
2020/12/05 02:22:00;;;;;;;;;;;;;;;;;;2102203;28;44382;-64
2020/12/05 02:23:11;;;;;;;;;;;;;;;;;;2109054;28;46544;-64
2020/12/05 02:24:13;;;;;;;;;;;;;;;;;;2096707;28;45441;-64
2020/12/05 02:25:14;;;;;;;;;;;;;;;;;;2090547;28;42632;-63
2020/12/05 02:26:15;;;;;;;;;;;;;;;;;;2098595;28;45629;-62
2020/12/05 02:27:17;;;;;;;;;;;;;;;;;;2098418;28;44078;-62
2020/12/05 02:28:19;;;;;;;;;;;;;;;;;;2098615;28;45486;-62
2020/12/05 02:29:20;;;;;;;;;;;;;;;;;;2090076;28;45384;-62
2020/12/05 02:30:21;;;;;;;;;;;;;;;;;;2089465;28;44143;-63
2020/12/05 02:31:24;;;;;;;;;;;;;;;;;;2098880;28;42982;-63
2020/12/05 02:32:25;;;;;;;;;;;;;;;;;;2089812;28;45622;-62
2020/12/05 02:33:26;;;;;;;;;;;;;;;;;;2082171;28;46469;-62
2020/12/05 02:34:28;;;;;;;;;;;;;;;;;;2090026;28;44104;-63
2020/12/05 02:35:31;;;;;;;;;;;;;;;;;;2098754;28;45675;-63
2020/12/05 02:36:35;;;;;;;;;;;;;;;;;;2097856;28;44222;-63
2020/12/05 02:37:41;;;;;;;;;;;;;;;;;;2098739;28;43972;-63
2020/12/05 02:38:42;;;;;;;;;;;;;;;;;;2106824;28;43888;-63
2020/12/05 02:39:43;;;;;;;;;;;;;;;;;;2106922;28;46176;-63
2020/12/05 02:40:45;;;;;;;;;;;;;;;;;;2106666;28;46099;-63
2020/12/05 02:41:46;;;;;;;;;;;;;;;;;;2107059;28;44857;-63
2020/12/05 02:42:47;;;;;;;;;;;;;;;;;;2106201;28;45223;-62
2020/12/05 02:43:48;;;;;;;;;;;;;;;;;;2106338;28;45856;-64
2020/12/05 02:44:50;;;;;;;;;;;;;;;;;;2106791;28;45795;-62
2020/12/05 02:45:52;;;;;;;;;;;;;;;;;;2106755;28;45833;-62
2020/12/05 02:46:54;;;;;;;;;;;;;;;;;;2106425;28;46144;-62
2020/12/05 02:47:56;;;;;;;;;;;;;;;;;;2106570;28;46835;-62
2020/12/05 02:48:57;;;;;;;;;;;;;;;;;;2097723;28;47173;-63
2020/12/05 02:49:58;;;;;;;;;;;;;;;;;;2097654;28;45928;-62
2020/12/05 02:50:59;;;;;;;;;;;;;;;;;;2106887;28;44642;-63
2020/12/05 02:52:00;;;;;;;;;;;;;;;;;;2097935;28;45866;-62
2020/12/05 02:53:01;;;;;;;;;;;;;;;;;;2097776;28;43472;-62
2020/12/05 02:54:02;;;;;;;;;;;;;;;;;;2097903;28;46043;-62
2020/12/05 02:55:03;;;;;;;;;;;;;;;;;;2097588;28;44684;-62
2020/12/05 02:56:04;;;;;;;;;;;;;;;;;;2106897;28;45925;-62
2020/12/05 02:57:05;;;;;;;;;;;;;;;;;;2114400;28;45220;-62
2020/12/05 02:58:06;;;;;;;;;;;;;;;;;;2114576;28;43899;-62
2020/12/05 02:59:06;;;;;;;;;;;;;;;;;;2106953;28;45875;-62
2020/12/05 03:00:07;;;;;;;;;;;;;;;;;;2114675;28;46166;-62
2020/12/05 03:01:09;;;;;;;;;;;;;;;;;;2114607;28;44273;-63
2020/12/05 03:02:10;;;;;;;;;;;;;;;;;;2106572;28;43443;-63
2020/12/05 03:03:11;;;;;;;;;;;;;;;;;;2107031;28;44418;-63
2020/12/05 03:04:12;;;;;;;;;;;;;;;;;;2106845;28;44576;-63
2020/12/05 03:05:12;;;;;;;;;;;;;;;;;;2107017;28;43276;-63
2020/12/05 03:06:14;;;;;;;;;;;;;;;;;;2106616;28;44271;-63
2020/12/05 03:07:15;;;;;;;;;;;;;;;;;;2106776;28;44580;-63
2020/12/05 03:08:16;;;;;;;;;;;;;;;;;;2106067;28;43965;-63
2020/12/05 03:09:17;;;;;;;;;;;;;;;;;;2106610;28;45360;-62
2020/12/05 03:10:19;;;;;;;;;;;;;;;;;;2106057;28;43036;-63
2020/12/05 03:11:20;;;;;;;;;;;;;;;;;;2106775;28;43186;-69
2020/12/05 03:12:21;;;;;;;;;;;;;;;;;;2097656;28;43213;-63
2020/12/05 03:13:22;;;;;;;;;;;;;;;;;;2097957;28;44306;-63
2020/12/05 03:14:23;;;;;;;;;;;;;;;;;;2106104;28;43055;-62
2020/12/05 03:15:24;;;;;;;;;;;;;;;;;;2106066;28;43284;-64
2020/12/05 03:16:25;;;;;;;;;;;;;;;;;;2106536;28;43179;-64
2020/12/05 03:17:26;;;;;;;;;;;;;;;;;;2106554;28;43413;-64
2020/12/05 03:18:27;;;;;;;;;;;;;;;;;;2106295;28;43952;-63
2020/12/05 03:19:28;;;;;;;;;;;;;;;;;;2106722;28;42899;-63
2020/12/05 03:20:30;;;;;;;;;;;;;;;;;;2106231;28;43082;-63
2020/12/05 03:21:31;;;;;;;;;;;;;;;;;;2106990;28;44498;-63
2020/12/05 03:22:32;;;;;;;;;;;;;;;;;;2106163;28;44084;-64
2020/12/05 03:23:33;;;;;;;;;;;;;;;;;;2106786;28;44474;-62
2020/12/05 03:24:34;;;;;;;;;;;;;;;;;;2106556;28;45502;-63
2020/12/05 03:25:35;;;;;;;;;;;;;;;;;;2106659;28;44090;-64
2020/12/05 03:26:36;;;;;;;;;;;;;;;;;;2114252;28;44082;-64
2020/12/05 03:27:37;;;;;;;;;;;;;;;;;;2113278;28;44001;-63
2020/12/05 03:28:38;;;;;;;;;;;;;;;;;;2106316;28;46167;-63
2020/12/05 03:29:40;;;;;;;;;;;;;;;;;;2106800;28;43208;-64
2020/12/05 03:30:41;;;;;;;;;;;;;;;;;;2097068;28;45837;-63
2020/12/05 03:31:52;;;;;;;;;;;;;;;;;;2097804;28;43953;-63
2020/12/05 03:32:53;;;;;;;;;;;;;;;;;;2105819;28;43946;-63
2020/12/05 03:33:55;;;;;;;;;;;;;;;;;;2106678;28;46821;-64
2020/12/05 03:34:56;;;;;;;;;;;;;;;;;;2097573;28;43957;-65
2020/12/05 03:35:57;;;;;;;;;;;;;;;;;;2097928;28;44047;-63
2020/12/05 03:36:59;;;;;;;;;;;;;;;;;;2106271;28;44198;-63
2020/12/05 03:37:59;;;;;;;;;;;;;;;;;;2106439;28;46436;-63
2020/12/05 03:39:00;;;;;;;;;;;;;;;;;;2106386;28;45316;-64
2020/12/05 03:40:02;;;;;;;;;;;;;;;;;;2106399;28;44112;-64
2020/12/05 03:41:03;;;;;;;;;;;;;;;;;;2106506;28;44090;-63
2020/12/05 03:42:04;;;;;;;;;;;;;;;;;;2106702;28;45409;-64
2020/12/05 03:43:05;;;;;;;;;;;;;;;;;;2106784;28;44417;-64
2020/12/05 03:44:06;;;;;;;;;;;;;;;;;;2106721;28;44835;-64
2020/12/05 03:45:07;;;;;;;;;;;;;;;;;;2106471;28;45738;-64
2020/12/05 03:46:08;;;;;;;;;;;;;;;;;;2106552;28;46422;-64
2020/12/05 03:47:09;;;;;;;;;;;;;;;;;;2114075;28;44422;-64
2020/12/05 03:48:12;;;;;;;;;;;;;;;;;;2114382;28;45644;-64
2020/12/05 03:49:13;;;;;;;;;;;;;;;;;;2106659;28;45412;-64
2020/12/05 03:50:14;;;;;;;;;;;;;;;;;;2106842;28;44586;-64
2020/12/05 03:51:15;;;;;;;;;;;;;;;;;;2106735;28;46059;-64
2020/12/05 03:52:16;;;;;;;;;;;;;;;;;;2097886;28;44876;-64
2020/12/05 03:53:17;;;;;;;;;;;;;;;;;;2098451;28;45352;-64
2020/12/05 03:54:18;;;;;;;;;;;;;;;;;;2107860;28;47100;-64
2020/12/05 03:55:20;;;;;;;;;;;;;;;;;;2107951;28;44563;-64
2020/12/05 03:56:21;;;;;;;;;;;;;;;;;;2108212;28;44849;-64
2020/12/05 03:57:22;;;;;;;;;;;;;;;;;;2107520;28;44635;-65
2020/12/05 03:58:23;;;;;;;;;;;;;;;;;;2106762;28;44813;-64
2020/12/05 03:59:24;;;;;;;;;;;;;;;;;;2106689;28;44612;-63
2020/12/05 04:00:25;;;;;;;;;;;;;;;;;;2098368;28;47779;-63
2020/12/05 04:01:27;;;;;;;;;;;;;;;;;;2098608;28;44564;-63
2020/12/05 04:02:28;;;;;;;;;;;;;;;;;;2098314;28;46391;-63
2020/12/05 04:03:29;;;;;;;;;;;;;;;;;;2107277;28;43425;-64
2020/12/05 04:04:30;;;;;;;;;;;;;;;;;;2106624;28;45843;-64
2020/12/05 04:05:31;;;;;;;;;;;;;;;;;;2115504;28;44510;-63
2020/12/05 04:06:32;;;;;;;;;;;;;;;;;;2114106;28;43034;-62
2020/12/05 04:07:33;;;;;;;;;;;;;;;;;;2106247;28;41656;-64
2020/12/05 04:08:34;;;;;;;;;;;;;;;;;;2106203;28;44140;-63
2020/12/05 04:09:35;;;;;;;;;;;;;;;;;;2114304;28;42802;-63
2020/12/05 04:10:36;;;;;;;;;;;;;;;;;;2113763;28;45405;-63
2020/12/05 04:11:38;;;;;;;;;;;;;;;;;;2106456;28;44141;-63
2020/12/05 04:12:39;;;;;;;;;;;;;;;;;;2105316;28;44018;-63
2020/12/05 04:13:40;;;;;;;;;;;;;;;;;;2105925;28;44679;-63
2020/12/05 04:14:41;;;;;;;;;;;;;;;;;;2106073;28;43376;-63
2020/12/05 04:15:42;;;;;;;;;;;;;;;;;;2106492;28;44189;-63
2020/12/05 04:16:43;;;;;;;;;;;;;;;;;;2106325;28;44641;-63
2020/12/05 04:17:46;;;;;;;;;;;;;;;;;;2113961;28;43257;-63
2020/12/05 04:18:47;;;;;;;;;;;;;;;;;;2105061;28;44202;-63
2020/12/05 04:19:48;;;;;;;;;;;;;;;;;;2088787;28;45223;-64
2020/12/05 04:20:49;;;;;;;;;;;;;;;;;;2096903;28;43305;-64
2020/12/05 04:21:50;;;;;;;;;;;;;;;;;;2106193;28;44168;-63
2020/12/05 04:22:54;;;;;;;;;;;;;;;;;;2106493;28;42520;-63
2020/12/05 04:23:55;;;;;;;;;;;;;;;;;;2106286;28;44518;-64
2020/12/05 04:24:56;;;;;;;;;;;;;;;;;;2114419;28;42729;-64
2020/12/05 04:25:57;;;;;;;;;;;;;;;;;;2114118;28;45274;-64
2020/12/05 04:26:58;;;;;;;;;;;;;;;;;;2114197;28;43474;-64
2020/12/05 04:27:59;;;;;;;;;;;;;;;;;;2113032;28;43922;-64
2020/12/05 04:29:01;;;;;;;;;;;;;;;;;;2106059;28;43706;-64
2020/12/05 04:30:02;;;;;;;;;;;;;;;;;;2105867;28;45609;-64
2020/12/05 04:31:03;;;;;;;;;;;;;;;;;;2106214;28;44014;-63
2020/12/05 04:32:04;;;;;;;;;;;;;;;;;;2114177;28;46833;-64
2020/12/05 04:33:05;;;;;;;;;;;;;;;;;;2113966;28;45589;-64
2020/12/05 04:34:06;;;;;;;;;;;;;;;;;;2114086;28;45421;-64
2020/12/05 04:35:07;;;;;;;;;;;;;;;;;;2113706;28;44125;-63
2020/12/05 04:36:09;;;;;;;;;;;;;;;;;;2106264;28;44294;-63
2020/12/05 04:37:09;;;;;;;;;;;;;;;;;;2105706;28;44042;-63
2020/12/05 04:38:10;;;;;;;;;;;;;;;;;;2106363;28;45630;-63
2020/12/05 04:39:11;;;;;;;;;;;;;;;;;;2106038;28;46428;-63
2020/12/05 04:40:12;;;;;;;;;;;;;;;;;;2113689;28;46563;-63
2020/12/05 04:41:13;;;;;;;;;;;;;;;;;;2113915;28;45725;-63
2020/12/05 04:42:15;;;;;;;;;;;;;;;;;;2106242;28;44843;-64
2020/12/05 04:43:16;;;;;;;;;;;;;;;;;;2106056;28;45699;-64
2020/12/05 04:44:17;;;;;;;;;;;;;;;;;;2113795;28;46821;-63
2020/12/05 04:45:18;;;;;;;;;;;;;;;;;;2114297;28;44118;-63
2020/12/05 04:46:19;;;;;;;;;;;;;;;;;;2106259;28;42860;-64
2020/12/05 04:47:20;;;;;;;;;;;;;;;;;;2106217;28;45741;-64
2020/12/05 04:48:22;;;;;;;;;;;;;;;;;;2106474;28;44210;-64
2020/12/05 04:49:23;;;;;;;;;;;;;;;;;;2106497;28;43293;-64
2020/12/05 04:50:24;;;;;;;;;;;;;;;;;;2106547;28;44760;-64
2020/12/05 04:51:26;;;;;;;;;;;;;;;;;;2097560;28;44866;-64
2020/12/05 04:52:40;;;;;;;;;;;;;;;;;;2097493;28;44818;-64
2020/12/05 04:53:44;;;;;;;;;;;;;;;;;;2106063;28;44598;-64
2020/12/05 04:54:50;;;;;;;;;;;;;;;;;;2106097;28;46021;-64
2020/12/05 04:55:52;;;;;;;;;;;;;;;;;;2106028;28;44718;-64
2020/12/05 04:56:56;;;;;;;;;;;;;;;;;;2106154;28;46893;-64
2020/12/05 04:57:58;;;;;;;;;;;;;;;;;;2105717;28;45010;-64
2020/12/05 04:59:02;;;;;;;;;;;;;;;;;;2097164;28;45616;-64
2020/12/05 05:00:03;;;;;;;;;;;;;;;;;;2097296;28;48415;-64
2020/12/05 05:01:04;;;;;;;;;;;;;;;;;;2105527;28;44683;-64
2020/12/05 05:02:09;;;;;;;;;;;;;;;;;;2105412;28;46083;-64
2020/12/05 05:03:13;;;;;;;;;;;;;;;;;;2114024;28;46120;-64
2020/12/05 05:04:14;;;;;;;;;;;;;;;;;;2113293;28;46027;-64
2020/12/05 05:05:15;;;;;;;;;;;;;;;;;;2106135;28;44745;-64
2020/12/05 05:06:20;;;;;;;;;;;;;;;;;;2105899;28;45804;-64
2020/12/05 05:07:22;;;;;;;;;;;;;;;;;;2096893;28;46184;-64
2020/12/05 05:08:23;;;;;;;;;;;;;;;;;;2096982;28;45829;-64
2020/12/05 05:09:25;;;;;;;;;;;;;;;;;;2097258;28;44690;-64
2020/12/05 05:10:29;;;;;;;;;;;;;;;;;;2105117;28;45745;-63
2020/12/05 05:11:30;;;;;;;;;;;;;;;;;;2097224;28;45857;-63
2020/12/05 05:12:33;;;;;;;;;;;;;;;;;;2097004;28;43298;-63
2020/12/05 05:13:50;;;;;;;;;;;;;;;;;;2105885;28;42871;-63
2020/12/05 05:14:51;;;;;;;;;;;;;;;;;;2105949;28;41652;-63
2020/12/05 05:15:52;;;;;;;;;;;;;;;;;;2106055;28;44289;-63
2020/12/05 05:17:02;;;;;;;;;;;;;;;;;;2104946;28;43027;-63
2020/12/05 05:18:03;;;;;;;;;;;;;;;;;;2097113;28;43856;-63
2020/12/05 05:19:21;;;;;;;;;;;;;;;;;;2097008;28;45550;-63
2020/12/05 05:20:22;;;;;;;;;;;;;;;;;;2105859;28;43280;-63
2020/12/05 05:21:33;;;;;;;;;;;;;;;;;;2105828;28;42988;-63
2020/12/05 05:22:34;;;;;;;;;;;;;;;;;;2106000;28;43787;-62
2020/12/05 05:23:35;;;;;;;;;;;;;;;;;;2105749;28;44457;-63
2020/12/05 05:24:36;;;;;;;;;;;;;;;;;;2106059;28;44453;-63
2020/12/05 05:25:48;;;;;;;;;;;;;;;;;;2105484;28;42956;-63
2020/12/05 05:27:05;;;;;;;;;;;;;;;;;;2106011;28;41661;-63
2020/12/05 05:28:06;;;;;;;;;;;;;;;;;;2105860;28;44479;-63
2020/12/05 05:29:23;;;;;;;;;;;;;;;;;;2113680;28;42994;-63
2020/12/05 05:30:25;;;;;;;;;;;;;;;;;;2111400;28;43186;-63
2020/12/05 05:31:43;;;;;;;;;;;;;;;;;;2105797;28;44551;-63
2020/12/05 05:32:47;;;;;;;;;;;;;;;;;;2106145;28;41827;-62
2020/12/05 05:33:51;;;;;;;;;;;;;;;;;;2105581;28;43948;-62
2020/12/05 05:35:10;;;;;;;;;;;;;;;;;;2114345;28;43169;-63
2020/12/05 05:36:17;;;;;;;;;;;;;;;;;;2111328;28;44277;-63
2020/12/05 05:37:19;;;;;;;;;;;;;;;;;;2106003;28;44529;-63
2020/12/05 05:38:21;;;;;;;;;;;;;;;;;;2106130;28;44288;-63
2020/12/05 05:39:22;;;;;;;;;;;;;;;;;;2106306;28;45609;-63
2020/12/05 05:40:25;;;;;;;;;;;;;;;;;;2113972;28;43810;-62
2020/12/05 05:41:26;;;;;;;;;;;;;;;;;;2114284;28;43897;-62
2020/12/05 05:42:27;;;;;;;;;;;;;;;;;;2106689;28;45492;-62
2020/12/05 05:43:28;;;;;;;;;;;;;;;;;;2105908;28;44465;-62
2020/12/05 05:44:29;;;;;;;;;;;;;;;;;;2097172;28;45669;-62
2020/12/05 05:45:31;;;;;;;;;;;;;;;;;;2097942;28;45592;-61
2020/12/05 05:46:36;;;;;;;;;;;;;;;;;;2097251;28;44880;-62
2020/12/05 05:47:37;;;;;;;;;;;;;;;;;;2097968;28;43316;-62
2020/12/05 05:48:47;;;;;;;;;;;;;;;;;;2106197;28;45713;-62
2020/12/05 05:49:48;;;;;;;;;;;;;;;;;;2114500;28;44104;-62
2020/12/05 05:50:49;;;;;;;;;;;;;;;;;;2105171;28;44124;-63
2020/12/05 05:51:51;;;;;;;;;;;;;;;;;;2098684;28;45292;-62
2020/12/05 05:52:52;;;;;;;;;;;;;;;;;;2106577;28;44343;-63
2020/12/05 05:54:08;;;;;;;;;;;;;;;;;;2115256;28;44411;-63
2020/12/05 05:55:08;;;;;;;;;;;;;;;;;;2113144;28;43106;-63
2020/12/05 05:56:11;;;;;;;;;;;;;;;;;;2106365;28;44400;-62
2020/12/05 05:57:15;;;;;;;;;;;;;;;;;;2098406;28;44663;-62
2020/12/05 05:58:17;;;;;;;;;;;;;;;;;;2098390;28;45336;-63
2020/12/05 05:59:20;;;;;;;;;;;;;;;;;;2107212;28;44548;-62
2020/12/05 06:00:22;;;;;;;;;;;;;;;;;;2106785;28;44747;-63
2020/12/05 06:01:27;;;;;;;;;;;;;;;;;;2107262;28;44785;-63
2020/12/05 06:02:31;;;;;;;;;;;;;;;;;;2098074;28;44556;-63
2020/12/05 06:03:43;;;;;;;;;;;;;;;;;;2098863;28;43923;-62
2020/12/05 06:04:47;;;;;;;;;;;;;;;;;;2106953;28;45885;-63
2020/12/05 06:05:50;;;;;;;;;;;;;;;;;;2106919;28;46838;-62
2020/12/05 06:06:52;;;;;;;;;;;;;;;;;;2106873;28;46156;-62
2020/12/05 06:07:53;;;;;;;;;;;;;;;;;;2106999;28;46150;-62
2020/12/05 06:08:56;;;;;;;;;;;;;;;;;;2114918;28;45855;-63
2020/12/05 06:09:57;;;;;;;;;;;;;;;;;;2114647;28;44433;-64
2020/12/05 06:10:59;;;;;;;;;;;;;;;;;;2106407;28;44428;-63
2020/12/05 06:12:02;;;;;;;;;;;;;;;;;;2106672;28;45861;-63
2020/12/05 06:13:03;;;;;;;;;;;;;;;;;;2106953;28;43163;-64
2020/12/05 06:14:08;;;;;;;;;;;;;;;;;;2106601;28;44448;-64
2020/12/05 06:15:10;;;;;;;;;;;;;;;;;;2115068;28;46039;-64
2020/12/05 06:16:11;;;;;;;;;;;;;;;;;;2115168;28;43235;-63
2020/12/05 06:17:12;;;;;;;;;;;;;;;;;;2107862;28;44832;-64
2020/12/05 06:18:14;;;;;;;;;;;;;;;;;;2108326;28;44847;-63
2020/12/05 06:19:15;;;;;;;;;;;;;;;;;;2114909;28;44554;-63
2020/12/05 06:20:18;;;;;;;;;;;;;;;;;;2115280;28;43544;-63
2020/12/05 06:21:19;;;;;;;;;;;;;;;;;;2107029;28;43955;-64
2020/12/05 06:22:42;;;;;;;;;;;;;;;;;;2107200;28;41838;-64
2020/12/05 06:23:51;;;;;;;;;;;;;;;;;;2114811;28;44203;-64
2020/12/05 06:24:55;;;;;;;;;;;;;;;;;;2114058;28;44421;-64
2020/12/05 06:25:57;;;;;;;;;;;;;;;;;;2106805;28;41956;-64
2020/12/05 06:27:00;;;;;;;;;;;;;;;;;;2107080;28;43840;-63
2020/12/05 06:28:03;;;;;;;;;;;;;;;;;;2106612;28;44467;-64
2020/12/05 06:29:06;;;;;;;;;;;;;;;;;;2107238;28;42244;-64
2020/12/05 06:30:07;;;;;;;;;;;;;;;;;;2106602;28;44297;-63
2020/12/05 06:31:08;;;;;;;;;;;;;;;;;;2107276;28;44183;-63
2020/12/05 06:32:09;;;;;;;;;;;;;;;;;;2106858;28;43047;-64
2020/12/05 06:33:10;;;;;;;;;;;;;;;;;;2107135;28;43166;-63
2020/12/05 06:34:32;;;;;;;;;;;;;;;;;;2106870;28;42902;-64
2020/12/05 06:35:34;;;;;;;;;;;;;;;;;;2106934;28;42199;-63
2020/12/05 06:36:36;;;;;;;;;;;;;;;;;;2106882;28;43177;-63
2020/12/05 06:37:37;;;;;;;;;;;;;;;;;;2106720;28;46440;-63
2020/12/05 06:38:38;;;;;;;;;;;;;;;;;;2106068;28;43250;-63
2020/12/05 06:39:39;;;;;;;;;;;;;;;;;;2107051;28;42979;-63
2020/12/05 06:40:40;;;;;;;;;;;;;;;;;;2114445;28;44276;-63
2020/12/05 06:41:46;;;;;;;;;;;;;;;;;;2106299;28;44216;-63
2020/12/05 06:42:48;;;;;;;;;;;;;;;;;;2098942;28;42986;-63
2020/12/05 06:44:06;;;;;;;;;;;;;;;;;;2099219;28;45307;-63
2020/12/05 06:45:08;;;;;;;;;;;;;;;;;;2108146;28;46362;-63
2020/12/05 06:46:09;;;;;;;;;;;;;;;;;;2106536;28;44780;-63
2020/12/05 06:47:21;;;;;;;;;;;;;;;;;;2106827;28;42475;-63
2020/12/05 06:48:22;;;;;;;;;;;;;;;;;;2115260;28;44262;-63
2020/12/05 06:49:39;;;;;;;;;;;;;;;;;;2115214;28;45632;-64
2020/12/05 06:50:41;;;;;;;;;;;;;;;;;;2107164;28;44938;-64
2020/12/05 06:51:42;;;;;;;;;;;;;;;;;;2107842;28;46821;-64
2020/12/05 06:52:43;;;;;;;;;;;;;;;;;;2107664;28;44382;-64
2020/12/05 06:53:46;;;;;;;;;;;;;;;;;;2115870;28;42916;-64
2020/12/05 06:54:48;;;;;;;;;;;;;;;;;;2115312;28;42962;-64
2020/12/05 06:55:50;;;;;;;;;;;;;;;;;;2098816;28;45599;-64
2020/12/05 06:57:10;;;;;;;;;;;;;;;;;;2099014;28;43849;-64
2020/12/05 06:58:11;;;;;;;;;;;;;;;;;;2115598;28;46882;-64
2020/12/05 06:59:22;;;;;;;;;;;;;;;;;;2107007;28;45704;-63
2020/12/05 07:00:24;;;;;;;;;;;;;;;;;;2107875;28;45419;-63
2020/12/05 07:01:29;;;;;;;;;;;;;;;;;;2114180;28;43457;-63
2020/12/05 07:02:32;;;;;;;;;;;;;;;;;;2105651;28;46646;-63
2020/12/05 07:03:33;;;;;;;;;;;;;;;;;;2106699;28;46698;-63
2020/12/05 07:04:34;;;;;;;;;;;;;;;;;;2106898;28;46483;-63
2020/12/05 07:05:41;;;;;;;;;;;;;;;;;;2107127;28;46710;-63
2020/12/05 07:06:42;;;;;;;;;;;;;;;;;;2107012;28;44715;-64